Welcome to Boston ARTCC, where excellence is served daily with a cup of MOCHA HAGoTDI


Whether you are a pilot, controller, or a little of both; ZBW is the premier airspace in VATSIM

News

Cross the Pond 2014 Eastbound - Pilot Briefing

ATTENTION ALL PILOTS:

The Cross the Pond 2014 Eastbound Pilot Briefing for pilots departing from Boston Logan Intl Airport (KBOS) is now available and is attached to this post in the vZBW forum. It can also be accessed on the Cross the Pond website under the pilot area.

Don't be afraid to contact us with any questions, comments, concerns, or suggestions. Most importantly, see you on the 25th!

2 weeks ago

ZBW Website NOTAM

Attention ZBW Controllers (and TS3 visitors):


Please update your settings to reflect the host as "bostonartcc.net" instead of "ts3.bostonartcc.net". Due to what appears to be local DNS caching issues, the old ts3 subdomain will no longer respond.


Please note that all email addresses are the same post-migration, however you may also elect to contact staff members through the roster.


Student Controllers

Please use the training center to request training sessions. This will provide a direct link for staff members to more easily monitor and manage training sessions.

3 weeks ago

ATC Online

Controller Position Frequency Sign-On
Don Desfosse BOS_NE_CTR 128.050 11 hours ago

Air Traffic

Inbound: 7 Outbound: 29 View All

AAL363 KABE +SAX V39 CMK V3 HFD KBOS Graham White YPAD
T/A321/F KBOS 33000 ETE: under 1 hour
AAL551 KJFK +MERIT KRANN3 Manny Madera - KJFK
T/A320/F KBOS 21000 ETE: under 1 hour
FDX303 KMEM CRSON3 HUMMS PXV ... J82 ALB QUABN2 Richard Walsh KBOS
H/MD11/L KBOS 37000 ETE: 2 hours
MET106 LEMD ZMR UL155 ADORO ... TUSKY ENE OOSHN2 Alex Bresnick 9B1
T/B752/F KBOS 34000 ETE: under 1 hour
N101CD KFRG + Christopher Coon - KBWI
BE33/A KGFL VR ETE: 1 hours

Weather parsed

KBOS 252154Z 23007G16KT 10SM FEW070 BKN270 16/06 A2958 RMK AO2 SLP016 T01610056

KMHT 252153Z 23004KT 10SM BKN060 BKN200 16/04 A2957 RMK AO2 SLP026 T01610044

KBDL 252151Z 22006KT 10SM FEW140 SCT250 17/06 A2960 RMK AO2 SLP024 T01670056

KPVD 252151Z 20008KT 10SM FEW040 FEW130 FEW210 14/06 A2961 RMK AO2 SLP028 T01440061